createdAt,value
2023-02-16T00:01:46.123Z,26.65
2023-02-16T00:04:24.679Z,29.20
2023-02-16T00:06:52.971Z,28.75
2023-02-16T00:09:20.568Z,29.77
2023-02-16T00:12:06.743Z,24.42
2023-02-16T00:14:37.917Z,30.00
2023-02-16T00:17:05.279Z,26.90
2023-02-16T00:19:38.059Z,28.35
2023-02-16T00:22:06.825Z,26.20
2023-02-16T00:24:33.651Z,26.88
2023-02-16T00:27:00.788Z,27.33
2023-02-16T00:29:32.558Z,30.10
2023-02-16T00:32:01.834Z,30.27
2023-02-16T00:34:33.233Z,31.70
2023-02-16T00:37:19.700Z,28.17
2023-02-16T00:39:48.451Z,26.67
2023-02-16T00:42:15.106Z,30.10
2023-02-16T00:44:53.836Z,29.10
2023-02-16T00:47:37.406Z,30.83
2023-02-16T00:50:18.483Z,29.35
2023-02-16T00:52:46.666Z,27.45
2023-02-16T00:55:16.325Z,29.38
2023-02-16T00:58:00.192Z,24.58
2023-02-16T01:00:30.424Z,25.55
2023-02-16T01:03:00.012Z,26.98
2023-02-16T01:05:27.082Z,27.58
2023-02-16T01:08:12.140Z,28.70
2023-02-16T01:10:58.570Z,25.33
2023-02-16T01:13:28.572Z,25.88
2023-02-16T01:15:55.957Z,23.50
2023-02-16T01:18:22.991Z,30.75
2023-02-16T01:20:51.268Z,31.77
2023-02-16T01:23:17.884Z,31.77
2023-02-16T01:25:44.582Z,24.52
2023-02-16T01:28:22.939Z,30.38
2023-02-16T01:30:51.358Z,29.85
2023-02-16T01:33:18.502Z,28.35
2023-02-16T01:35:45.483Z,27.55
2023-02-16T01:38:18.785Z,31.05
2023-02-16T01:41:25.714Z,27.70
2023-02-16T01:43:59.796Z,24.45
2023-02-16T01:46:51.160Z,29.67
2023-02-16T01:49:20.462Z,29.63
2023-02-16T01:52:11.947Z,31.08
2023-02-16T01:54:48.749Z,31.98
2023-02-16T01:57:30.646Z,25.08
2023-02-16T01:59:57.183Z,29.98
2023-02-16T02:02:27.911Z,21.92
2023-02-16T02:05:37.585Z,27.33
2023-02-16T02:08:37.452Z,27.23
2023-02-16T02:11:16.138Z,25.48
2023-02-16T02:13:56.592Z,27.85
2023-02-16T02:16:26.157Z,28.75
2023-02-16T02:18:53.059Z,30.50
2023-02-16T02:22:06.503Z,27.33
2023-02-16T02:24:54.370Z,29.50
2023-02-16T02:27:25.537Z,25.05
2023-02-16T02:30:11.585Z,28.52
2023-02-16T02:32:58.689Z,28.73
2023-02-16T02:35:49.726Z,26.17
2023-02-16T02:38:50.072Z,29.50
2023-02-16T02:41:54.764Z,27.88
2023-02-16T02:44:24.071Z,25.80
2023-02-16T02:46:51.257Z,25.65
2023-02-16T02:49:18.862Z,25.38
2023-02-16T02:51:45.716Z,28.40
2023-02-16T02:54:37.571Z,27.40
2023-02-16T02:57:39.435Z,29.17
2023-02-16T03:00:37.094Z,25.80
2023-02-16T03:07:43.693Z,22.38
2023-02-16T03:10:29.520Z,25.15
2023-02-16T03:12:57.447Z,22.73
2023-02-16T03:15:26.130Z,26.30
2023-02-16T03:18:13.966Z,26.77
2023-02-16T03:21:01.545Z,23.17
2023-02-16T03:23:47.669Z,22.85
2023-02-16T03:26:33.862Z,20.65
2023-02-16T03:29:21.276Z,27.13
2023-02-16T03:31:49.351Z,27.20
2023-02-16T03:34:18.089Z,22.77
2023-02-16T03:36:48.672Z,25.67
2023-02-16T03:41:51.618Z,22.27
2023-02-16T03:44:18.798Z,24.33
2023-02-16T03:46:45.607Z,24.50
2023-02-16T03:49:12.353Z,21.88
2023-02-16T03:51:38.981Z,22.27
2023-02-16T03:54:05.687Z,22.88
2023-02-16T03:56:32.300Z,20.83
2023-02-16T03:58:59.099Z,24.75
2023-02-16T04:01:25.874Z,20.48
2023-02-16T04:03:52.745Z,24.63
2023-02-16T04:06:19.510Z,24.17
2023-02-16T04:08:46.174Z,24.27
2023-02-16T04:11:31.260Z,21.27
2023-02-16T04:13:57.908Z,20.60
2023-02-16T04:16:24.601Z,23.90
2023-02-16T04:18:51.321Z,24.98
2023-02-16T04:21:17.896Z,22.75
2023-02-16T04:23:44.556Z,23.58
2023-02-16T04:26:11.164Z,23.30
2023-02-16T04:28:37.747Z,23.80
2023-02-16T04:31:04.800Z,23.45
2023-02-16T04:33:31.630Z,24.02
2023-02-16T04:35:58.197Z,25.58
2023-02-16T04:38:26.108Z,23.02
2023-02-16T04:40:52.714Z,28.00
2023-02-16T04:43:19.328Z,23.83
2023-02-16T04:45:46.078Z,26.00
2023-02-16T04:48:12.802Z,21.77
2023-02-16T04:50:39.434Z,27.55
2023-02-16T04:53:07.278Z,25.55
2023-02-16T04:55:33.906Z,23.02
2023-02-16T04:58:00.601Z,31.35
2023-02-16T05:00:27.294Z,25.73
2023-02-16T05:02:53.957Z,30.23
2023-02-16T05:05:20.599Z,26.02
2023-02-16T05:07:47.154Z,24.67
2023-02-16T05:10:13.802Z,25.10
2023-02-16T05:12:59.047Z,25.67
2023-02-16T05:15:25.866Z,22.70
2023-02-16T05:17:52.525Z,23.65
2023-02-16T05:20:19.226Z,23.52
2023-02-16T05:22:46.304Z,29.80
2023-02-16T05:25:13.330Z,26.88
2023-02-16T05:27:39.953Z,28.08
2023-02-16T05:30:07.228Z,25.70
2023-02-16T05:32:33.839Z,27.58
2023-02-16T05:35:00.472Z,29.80
2023-02-16T05:37:27.101Z,23.50
2023-02-16T05:39:53.865Z,26.05
2023-02-16T05:42:20.453Z,25.88
2023-02-16T05:44:47.798Z,26.25
2023-02-16T05:47:14.466Z,25.58
2023-02-16T05:49:41.051Z,26.63
2023-02-16T05:52:07.680Z,25.13
2023-02-16T05:54:34.692Z,23.80
2023-02-16T05:57:01.284Z,27.38
2023-02-16T05:59:27.901Z,27.52
2023-02-16T06:01:54.766Z,26.30
2023-02-16T06:04:21.907Z,27.33
2023-02-16T06:06:48.755Z,23.98
2023-02-16T06:09:15.488Z,30.40
2023-02-16T06:11:42.525Z,26.40
2023-02-16T06:14:18.068Z,26.60
2023-02-16T06:16:47.528Z,28.80
2023-02-16T06:19:16.544Z,29.65
2023-02-16T06:21:43.876Z,25.65
2023-02-16T06:24:12.534Z,28.45
2023-02-16T06:26:39.587Z,27.63
2023-02-16T06:29:06.571Z,28.60
2023-02-16T06:31:36.056Z,25.73
2023-02-16T06:34:03.824Z,27.35
2023-02-16T06:36:30.961Z,25.15
2023-02-16T06:38:57.569Z,28.55
2023-02-16T06:41:37.754Z,29.42
2023-02-16T06:44:13.578Z,29.40
2023-02-16T06:46:44.417Z,25.10
2023-02-16T06:49:20.464Z,25.77
2023-02-16T06:51:49.671Z,27.00
2023-02-16T06:54:17.077Z,26.23
2023-02-16T06:56:43.693Z,30.27
2023-02-16T06:59:12.432Z,29.38
2023-02-16T07:01:39.073Z,24.48
2023-02-16T07:04:05.766Z,28.27
2023-02-16T07:06:32.451Z,28.40
2023-02-16T07:08:59.392Z,26.30
2023-02-16T07:11:26.211Z,28.98
2023-02-16T07:13:52.912Z,26.92
2023-02-16T07:16:19.554Z,28.20
2023-02-16T07:18:47.324Z,25.38
2023-02-16T07:21:15.048Z,24.60
2023-02-16T07:23:42.751Z,31.45
2023-02-16T07:26:09.653Z,30.63
2023-02-16T07:28:36.419Z,29.13
2023-02-16T07:31:10.682Z,25.63
2023-02-16T07:33:38.676Z,30.25
2023-02-16T07:36:06.229Z,25.95
2023-02-16T07:38:33.370Z,28.77
2023-02-16T07:40:59.983Z,33.15
2023-02-16T07:43:26.761Z,43.88
2023-02-16T07:45:54.105Z,29.92
2023-02-16T07:48:21.040Z,27.25
2023-02-16T07:50:47.731Z,26.13
2023-02-16T07:53:14.401Z,27.45
2023-02-16T07:55:43.031Z,26.85
2023-02-16T07:58:09.841Z,30.38
2023-02-16T08:00:36.673Z,27.30
2023-02-16T08:03:04.097Z,28.23
2023-02-16T08:05:34.115Z,26.27
2023-02-16T08:08:00.750Z,30.15
2023-02-16T08:10:27.412Z,28.05
2023-02-16T08:12:54.054Z,29.98
2023-02-16T08:15:20.807Z,28.70
2023-02-16T08:17:47.938Z,30.27
2023-02-16T08:20:14.859Z,28.00
2023-02-16T08:22:41.543Z,30.23
2023-02-16T08:25:08.458Z,26.27
2023-02-16T08:27:35.765Z,25.92
2023-02-16T08:30:02.484Z,26.02
2023-02-16T08:32:29.715Z,24.00
2023-02-16T08:34:57.340Z,24.63
2023-02-16T08:37:24.777Z,24.80
2023-02-16T08:39:52.045Z,28.10
2023-02-16T08:42:18.656Z,24.83
2023-02-16T08:44:45.339Z,25.33
2023-02-16T08:47:12.084Z,22.50
2023-02-16T08:49:39.405Z,27.08
2023-02-16T08:52:06.478Z,21.70
2023-02-16T08:54:33.467Z,23.30
2023-02-16T08:57:02.665Z,25.13
2023-02-16T08:59:29.428Z,22.42
2023-02-16T09:02:00.850Z,24.08
2023-02-16T09:04:29.715Z,22.58
2023-02-16T09:06:58.142Z,22.05
2023-02-16T09:09:26.366Z,25.85
2023-02-16T09:11:53.559Z,23.38
2023-02-16T09:14:21.479Z,24.60
2023-02-16T09:16:48.379Z,24.35
2023-02-16T09:19:17.626Z,24.77
2023-02-16T09:21:45.099Z,23.60
2023-02-16T09:24:12.983Z,23.63
2023-02-16T09:26:42.714Z,21.55
2023-02-16T09:29:12.421Z,23.57
2023-02-16T09:31:40.186Z,20.97
2023-02-16T09:34:20.909Z,19.20
2023-02-16T09:39:17.014Z,22.00
2023-02-16T09:41:59.189Z,22.67
2023-02-16T09:45:00.896Z,21.55
2023-02-16T09:47:30.918Z,19.98
2023-02-16T09:50:00.341Z,19.17
2023-02-16T09:52:37.372Z,22.52
2023-02-16T09:55:24.839Z,19.80
2023-02-16T09:58:22.426Z,22.35
2023-02-16T10:00:51.245Z,22.23
2023-02-16T10:03:29.139Z,22.00
2023-02-16T10:06:14.125Z,19.05
2023-02-16T10:08:51.228Z,19.77
2023-02-16T10:11:38.748Z,20.63
2023-02-16T10:14:37.387Z,22.73
2023-02-16T10:17:23.944Z,19.05
2023-02-16T10:19:59.487Z,22.00
2023-02-16T10:22:34.220Z,22.90
2023-02-16T10:25:04.777Z,18.00
2023-02-16T10:27:40.712Z,22.15
2023-02-16T10:30:19.307Z,19.95
2023-02-16T10:33:00.689Z,21.40
2023-02-16T10:35:49.230Z,23.38
2023-02-16T10:38:43.056Z,19.10
2023-02-16T10:41:32.980Z,17.00
2023-02-16T10:44:08.500Z,19.05
2023-02-16T10:46:41.263Z,19.98
2023-02-16T10:49:16.786Z,20.08
2023-02-16T10:51:49.412Z,21.38
2023-02-16T10:54:32.921Z,20.95
2023-02-16T10:57:07.382Z,17.85
2023-02-16T10:59:45.411Z,18.13
2023-02-16T11:02:18.200Z,20.23
2023-02-16T11:04:48.580Z,17.65
2023-02-16T11:07:18.670Z,18.98
2023-02-16T11:09:48.019Z,20.52
2023-02-16T11:12:32.446Z,18.55
2023-02-16T11:15:04.739Z,17.02
2023-02-16T11:17:33.081Z,18.08
2023-02-16T11:20:05.509Z,19.83
2023-02-16T11:22:37.861Z,21.90
2023-02-16T11:25:33.599Z,18.65
2023-02-16T11:28:09.541Z,17.98
2023-02-16T11:30:39.948Z,17.50
2023-02-16T11:33:28.418Z,16.58
2023-02-16T11:35:56.982Z,18.38
2023-02-16T11:38:34.198Z,17.73
2023-02-16T11:41:03.396Z,17.98
2023-02-16T11:43:34.611Z,20.25
2023-02-16T11:46:13.843Z,20.10
2023-02-16T11:48:40.801Z,19.50
2023-02-16T11:51:15.191Z,17.48
2023-02-16T11:53:44.296Z,20.30
2023-02-16T11:56:23.093Z,17.88
2023-02-16T11:59:24.405Z,18.00
2023-02-16T12:02:00.472Z,20.02
2023-02-16T12:04:29.796Z,17.42
2023-02-16T12:07:29.770Z,18.63
2023-02-16T12:10:15.130Z,17.00
2023-02-16T12:12:51.779Z,16.17
2023-02-16T12:15:27.524Z,16.42
2023-02-16T12:18:36.978Z,16.15
2023-02-16T12:21:17.107Z,18.45
2023-02-16T12:24:01.856Z,15.40
2023-02-16T12:26:51.944Z,18.23
2023-02-16T12:29:37.967Z,21.63
2023-02-16T12:32:12.596Z,16.00
2023-02-16T12:35:19.014Z,15.82
2023-02-16T12:37:53.975Z,18.58
2023-02-16T12:40:33.635Z,17.67
2023-02-16T12:43:04.006Z,16.85
2023-02-16T12:45:36.611Z,19.63
2023-02-16T12:48:26.185Z,14.30
2023-02-16T12:50:56.135Z,16.20
2023-02-16T12:53:36.518Z,16.35
2023-02-16T12:56:08.469Z,17.40
2023-02-16T12:58:40.385Z,17.20
2023-02-16T13:01:15.996Z,15.30
2023-02-16T13:04:20.248Z,17.70
2023-02-16T13:07:01.986Z,18.00
2023-02-16T13:09:44.128Z,17.30
2023-02-16T13:12:19.594Z,17.70
2023-02-16T13:14:55.951Z,15.73
2023-02-16T13:17:33.311Z,19.20
2023-02-16T13:19:59.908Z,15.70
2023-02-16T13:22:49.349Z,17.38
2023-02-16T13:25:44.474Z,18.17
2023-02-16T13:28:37.024Z,17.73
2023-02-16T13:31:15.420Z,18.05
2023-02-16T13:34:07.039Z,17.60
2023-02-16T13:36:42.906Z,23.10
2023-02-16T13:39:35.854Z,18.25
2023-02-16T13:42:41.443Z,19.67
2023-02-16T13:45:19.663Z,19.95
2023-02-16T13:47:46.525Z,18.92
2023-02-16T13:50:24.879Z,20.00
2023-02-16T13:52:53.180Z,22.98
2023-02-16T13:55:30.745Z,21.83
2023-02-16T13:58:05.716Z,20.73
2023-02-16T14:00:47.882Z,22.27
2023-02-16T14:03:17.531Z,23.38
2023-02-16T14:05:53.042Z,19.50
2023-02-16T14:08:24.260Z,20.77
2023-02-16T14:10:53.950Z,21.67
2023-02-16T14:13:38.770Z,20.40
2023-02-16T14:16:08.635Z,22.88
2023-02-16T14:19:07.770Z,21.02
2023-02-16T14:21:37.111Z,21.58
2023-02-16T14:24:07.438Z,23.08
2023-02-16T14:26:56.459Z,22.98
2023-02-16T14:29:30.559Z,23.58
2023-02-16T14:32:15.755Z,26.08
2023-02-16T14:35:07.012Z,23.38
2023-02-16T14:37:42.232Z,24.02
2023-02-16T14:40:17.371Z,23.73
2023-02-16T14:42:53.212Z,26.58
2023-02-16T14:46:05.777Z,27.58
2023-02-16T14:48:48.418Z,26.25
2023-02-16T14:51:22.809Z,26.52
2023-02-16T14:54:09.806Z,23.92
2023-02-16T14:56:42.073Z,24.52
2023-02-16T14:59:28.314Z,26.27
2023-02-16T15:01:55.827Z,24.27
2023-02-16T15:04:31.171Z,25.15
2023-02-16T15:07:03.248Z,26.92
2023-02-16T15:09:33.063Z,25.80
2023-02-16T15:12:24.062Z,21.30
2023-02-16T15:15:01.163Z,25.13
2023-02-16T15:18:00.200Z,23.38
2023-02-16T15:20:38.508Z,26.70
2023-02-16T15:23:16.202Z,24.02
2023-02-16T15:25:42.958Z,25.48
2023-02-16T15:28:12.531Z,25.05
2023-02-16T15:30:48.486Z,24.13
2023-02-16T15:33:24.319Z,24.73
2023-02-16T15:35:57.330Z,26.02
2023-02-16T15:38:27.312Z,25.02
2023-02-16T15:40:55.656Z,26.73
2023-02-16T15:43:45.533Z,25.40
2023-02-16T15:46:37.751Z,26.87
2023-02-16T15:49:14.710Z,27.85
2023-02-16T15:51:43.135Z,25.70
2023-02-16T15:54:28.703Z,26.17
2023-02-16T15:56:58.475Z,28.08
2023-02-16T15:59:38.541Z,29.47
2023-02-16T16:02:25.842Z,28.92
2023-02-16T16:04:58.636Z,25.95
2023-02-16T16:07:29.198Z,24.67
2023-02-16T16:09:57.755Z,30.90
2023-02-16T16:12:25.836Z,27.40
2023-02-16T16:14:56.867Z,27.52
2023-02-16T16:17:30.754Z,31.60
2023-02-16T16:20:17.965Z,28.67
2023-02-16T16:22:44.908Z,28.08
2023-02-16T16:25:36.951Z,31.48
2023-02-16T16:28:11.490Z,31.95
2023-02-16T16:30:43.874Z,30.55
2023-02-16T16:33:15.104Z,31.10
2023-02-16T16:35:48.160Z,37.50
2023-02-16T16:38:42.606Z,32.67
2023-02-16T16:41:25.793Z,35.05
2023-02-16T16:43:56.615Z,32.08
2023-02-16T16:46:24.536Z,30.95
2023-02-16T16:48:57.800Z,30.10
2023-02-16T16:51:24.310Z,30.60
2023-02-16T16:53:51.814Z,30.33
2023-02-16T16:56:19.553Z,34.88
2023-02-16T16:58:53.764Z,36.72
2023-02-16T17:01:21.640Z,34.83
2023-02-16T17:03:49.053Z,33.35
2023-02-16T17:06:18.300Z,33.90
2023-02-16T17:08:45.409Z,32.15
2023-02-16T17:11:23.674Z,31.77
2023-02-16T17:13:51.690Z,36.40
2023-02-16T17:16:36.524Z,29.75
2023-02-16T17:19:03.621Z,34.55
2023-02-16T17:21:30.282Z,30.98
2023-02-16T17:23:56.910Z,32.65
2023-02-16T17:26:23.724Z,30.10
2023-02-16T17:28:50.616Z,29.10
2023-02-16T17:31:17.494Z,28.33
2023-02-16T17:33:45.206Z,31.00
2023-02-16T17:36:16.789Z,30.80
2023-02-16T17:38:44.706Z,36.05
2023-02-16T17:41:21.765Z,31.45
2023-02-16T17:43:49.462Z,32.08
2023-02-16T17:46:18.176Z,33.13
2023-02-16T17:48:47.533Z,32.65
2023-02-16T17:51:18.411Z,28.58
2023-02-16T17:53:45.354Z,30.65
2023-02-16T17:56:14.361Z,27.75
2023-02-16T17:58:41.114Z,28.15
2023-02-16T18:01:10.343Z,33.28
2023-02-16T18:03:36.883Z,29.67
2023-02-16T18:06:03.891Z,28.17
2023-02-16T18:08:30.772Z,29.73
2023-02-16T18:11:02.146Z,31.40
2023-02-16T18:13:29.595Z,33.38
2023-02-16T18:15:56.625Z,34.58
2023-02-16T18:18:23.191Z,27.95
2023-02-16T18:20:50.112Z,27.40
2023-02-16T18:23:17.175Z,32.78
2023-02-16T18:25:44.162Z,32.90
2023-02-16T18:28:14.954Z,33.55
2023-02-16T18:33:08.346Z,30.20
2023-02-16T18:35:34.889Z,33.38
2023-02-16T18:38:01.813Z,32.03
2023-02-16T18:40:28.419Z,31.63
2023-02-16T18:42:56.659Z,32.75
2023-02-16T18:45:23.704Z,30.85
2023-02-16T18:47:50.508Z,30.15
2023-02-16T18:50:17.302Z,33.95
2023-02-16T18:52:44.927Z,33.22
2023-02-16T18:55:15.411Z,27.65
2023-02-16T18:57:42.336Z,33.00
2023-02-16T19:00:12.027Z,28.33
2023-02-16T19:02:40.903Z,33.60
2023-02-16T19:05:09.259Z,27.95
2023-02-16T19:07:36.182Z,24.10
2023-02-16T19:10:04.179Z,26.00
2023-02-16T19:12:30.798Z,27.98
2023-02-16T19:14:57.463Z,26.20
2023-02-16T19:17:24.066Z,25.77
2023-02-16T19:19:50.654Z,25.75
2023-02-16T19:22:17.324Z,27.17
2023-02-16T19:24:43.932Z,24.75
2023-02-16T19:27:10.509Z,23.77
2023-02-16T19:29:37.103Z,24.40
2023-02-16T19:32:03.982Z,26.60
2023-02-16T19:34:30.706Z,23.40
2023-02-16T19:36:57.219Z,25.50
2023-02-16T19:39:23.784Z,25.27
2023-02-16T19:41:50.409Z,24.35
2023-02-16T19:44:17.286Z,22.77
2023-02-16T19:46:43.970Z,23.73
2023-02-16T19:49:13.814Z,22.88
2023-02-16T19:51:40.846Z,21.77
2023-02-16T19:54:07.758Z,24.30
2023-02-16T19:56:36.310Z,25.80
2023-02-16T19:59:02.980Z,34.25
2023-02-16T20:01:29.594Z,26.35
2023-02-16T20:03:57.672Z,26.23
2023-02-16T20:06:27.405Z,22.77
2023-02-16T20:08:55.308Z,28.80
2023-02-16T20:11:25.143Z,29.58
2023-02-16T20:13:52.711Z,26.57
2023-02-16T20:16:20.388Z,26.00
2023-02-16T20:18:47.360Z,25.13
2023-02-16T20:21:16.918Z,25.10
2023-02-16T20:23:43.884Z,24.42
2023-02-16T20:26:14.923Z,27.67
2023-02-16T20:28:41.804Z,25.60
2023-02-16T20:31:39.381Z,21.85
2023-02-16T20:34:07.729Z,24.73
2023-02-16T20:36:37.147Z,24.67
2023-02-16T20:39:05.747Z,22.02
2023-02-16T20:41:32.381Z,23.05
2023-02-16T20:43:59.552Z,23.17
2023-02-16T20:46:26.296Z,23.83
2023-02-16T20:48:53.088Z,24.35
2023-02-16T20:51:20.188Z,26.67
2023-02-16T20:53:46.787Z,24.02
2023-02-16T20:56:16.687Z,24.30
2023-02-16T20:58:45.843Z,24.55
2023-02-16T21:01:20.578Z,23.52
2023-02-16T21:03:47.767Z,23.30
2023-02-16T21:06:15.892Z,28.38
2023-02-16T21:08:42.945Z,25.65
2023-02-16T21:11:10.086Z,22.38
2023-02-16T21:13:39.509Z,25.15
2023-02-16T21:16:07.272Z,22.92
2023-02-16T21:18:34.848Z,21.60
2023-02-16T21:21:02.312Z,22.38
2023-02-16T21:23:29.594Z,18.17
2023-02-16T21:26:00.860Z,20.13
2023-02-16T21:28:28.026Z,19.50
2023-02-16T21:30:55.332Z,16.30
2023-02-16T21:33:22.718Z,20.33
2023-02-16T21:35:49.328Z,17.83
2023-02-16T21:38:17.712Z,19.80
2023-02-16T21:41:03.235Z,21.80
2023-02-16T21:43:29.862Z,17.67
2023-02-16T21:46:01.341Z,19.20
2023-02-16T21:48:46.750Z,18.73
2023-02-16T21:51:22.239Z,19.25
2023-02-16T21:53:48.944Z,19.95
2023-02-16T21:56:29.256Z,21.48
2023-02-16T21:58:56.917Z,17.63
2023-02-16T22:01:35.227Z,17.77
2023-02-16T22:04:03.148Z,19.13
2023-02-16T22:06:32.655Z,17.80
2023-02-16T22:09:00.511Z,17.58
2023-02-16T22:11:27.346Z,23.00
2023-02-16T22:13:59.126Z,18.35
2023-02-16T22:16:28.475Z,19.90
2023-02-16T22:19:07.178Z,22.73
2023-02-16T22:21:38.611Z,22.75
2023-02-16T22:24:06.695Z,27.83
2023-02-16T22:26:35.110Z,27.33
2023-02-16T22:29:03.474Z,35.35
2023-02-16T22:31:30.533Z,30.80
2023-02-16T22:33:59.641Z,21.92
2023-02-16T22:36:26.822Z,18.55
2023-02-16T22:38:54.077Z,16.52
2023-02-16T22:41:21.916Z,15.95
2023-02-16T22:43:52.084Z,17.38
2023-02-16T22:46:18.786Z,17.45
2023-02-16T22:48:45.562Z,16.65
2023-02-16T22:51:13.821Z,16.63
2023-02-16T22:53:40.456Z,16.45
2023-02-16T22:56:09.632Z,14.68
2023-02-16T22:58:36.895Z,16.55
2023-02-16T23:01:04.481Z,15.05
2023-02-16T23:03:31.752Z,14.55
2023-02-16T23:05:58.331Z,16.10
2023-02-16T23:08:24.924Z,15.45
2023-02-16T23:11:00.561Z,14.95
2023-02-16T23:13:32.419Z,14.98
2023-02-16T23:16:12.414Z,15.00
2023-02-16T23:18:39.039Z,14.75
2023-02-16T23:21:07.725Z,15.32
2023-02-16T23:23:34.690Z,14.68
2023-02-16T23:26:01.348Z,13.57
2023-02-16T23:28:27.956Z,13.77
2023-02-16T23:30:56.839Z,13.18
2023-02-16T23:33:23.695Z,12.18
2023-02-16T23:35:50.608Z,14.70
2023-02-16T23:38:17.497Z,14.00
2023-02-16T23:40:44.124Z,14.07
2023-02-16T23:43:10.777Z,14.82
2023-02-16T23:45:37.771Z,13.95
2023-02-16T23:48:04.436Z,13.57
2023-02-16T23:50:31.004Z,15.88
2023-02-16T23:52:57.564Z,16.33
2023-02-16T23:55:24.145Z,15.73
2023-02-16T23:57:50.667Z,12.35
